NCAR-RAP Real-Time Weather Data

Output produced by METARs form (31 May 2020  12:10 UTC)
found at http://weather.rap.ucar.edu/surface/
 
K8D3 311156Z AUTO 17003KT 08/04 A3023 RMK AO1 SLP235 T00780039 10083 20050 53001
K8D3 311056Z AUTO 00000KT 06/03 A3023 RMK AO1 SLP235 T00560028
K8D3 310956Z AUTO 00000KT 06/02 A3023 RMK AO1 SLP234 T00610022
K8D3 310856Z AUTO 00000KT 07/03 A3023 RMK AO1 SLP234 T00670033 58008
K8D3 310756Z AUTO 00000KT 07/03 A3024 RMK AO1 SLP239 T00720033
K8D3 310656Z AUTO 00000KT 08/03 A3026 RMK AO1 SLP244 T00780033
K8D3 310556Z AUTO 00000KT 08/03 A3025 RMK AO1 SLP243 T00830028 10194 20078 402060078 51004
K8D3 310456Z AUTO 28003KT 09/02 A3025 RMK AO1 SLP242 T00890022
K8D3 310356Z AUTO 00000KT 09/03 A3025 RMK AO1 SLP242 T00940028
K8D3 310256Z AUTO 05004KT 13/M01 A3024 RMK AO1 SLP237 T01331011 53001
K8D3 310156Z AUTO 05003KT 16/M01 A3022 RMK AO1 SLP231 T01611006
K8D3 310056Z AUTO 02005KT 19/M03 A3023 RMK AO1 SLP231 T01891033
K8D3 302356Z AUTO 34007KT 20/M03 A3023 RMK AO1 SLP234 T02001028 10206 20167 58014
K8D3 302256Z AUTO 20/M03 A3025 RMK AO1 SLP239 T02001028
K8D3 302156Z AUTO 01008G16KT 20/M02 A3027 RMK AO1 SLP245 T02001022
K8D3 302056Z AUTO VRB05G14KT 19/M01 A3028 RMK AO1 SLP251 T01891011 56013
K8D3 301956Z AUTO 34011G15KT 19/M02 A3029 RMK AO1 SLP254 T01941022
K8D3 301856Z AUTO 03005KT 17/M02 A3030 RMK AO1 SLP259 T01721022
K8D3 301756Z AUTO 17/M01 A3032 RMK AO1 SLP264 T01721006 10172 20094 56006
K8D3 301656Z AUTO 36011KT 17/M01 A3032 RMK AO1 SLP265 T01671006